createdAt,value
2022-11-16T00:01:10.018Z,39.2
2022-11-16T00:02:20.000Z,39.2
2022-11-16T00:03:30.246Z,39.2
2022-11-16T00:04:40.000Z,39.2
2022-11-16T00:05:50.480Z,39.2
2022-11-16T00:07:00.000Z,39.2
2022-11-16T00:08:10.703Z,39.2
2022-11-16T00:09:20.000Z,39.2
2022-11-16T00:10:30.000Z,39.2
2022-11-16T00:11:40.000Z,39.2
2022-11-16T00:12:50.194Z,39.2
2022-11-16T00:14:00.000Z,39.2
2022-11-16T00:15:10.427Z,39.2
2022-11-16T00:16:20.000Z,39.2
2022-11-16T00:17:30.000Z,39.2
2022-11-16T00:18:40.771Z,39.3
2022-11-16T00:19:49.000Z,39.3
2022-11-16T00:20:59.043Z,39.3
2022-11-16T00:22:09.000Z,39.3
2022-11-16T00:23:19.000Z,39.3
2022-11-16T00:24:29.385Z,39.3
2022-11-16T00:25:39.498Z,39.3
2022-11-16T00:26:49.620Z,39.3
2022-11-16T00:27:59.000Z,39.3
2022-11-16T00:29:09.000Z,39.3
2022-11-16T00:30:19.970Z,39.3
2022-11-16T00:31:30.000Z,39.3
2022-11-16T00:32:40.000Z,39.3
2022-11-16T00:33:50.000Z,39.3
2022-11-16T00:35:00.424Z,39.3
2022-11-16T00:36:09.000Z,39.3
2022-11-16T00:37:19.000Z,39.3
2022-11-16T00:38:29.790Z,39.3
2022-11-16T00:39:39.000Z,39.3
2022-11-16T00:40:50.024Z,39.3
2022-11-16T00:42:00.154Z,39.3
2022-11-16T00:43:10.259Z,39.3
2022-11-16T00:44:20.000Z,39.4
2022-11-16T00:45:30.487Z,39.4
2022-11-16T00:46:40.000Z,39.4
2022-11-16T00:47:50.000Z,39.4
2022-11-16T00:49:00.868Z,39.4
2022-11-16T00:50:10.975Z,39.4
2022-11-16T00:51:20.000Z,39.4
2022-11-16T00:52:30.225Z,39.4
2022-11-16T00:53:40.341Z,39.4
2022-11-16T00:54:50.459Z,39.4
2022-11-16T00:56:00.000Z,39.4
2022-11-16T00:57:10.692Z,39.4
2022-11-16T00:58:20.000Z,39.4
2022-11-16T00:59:30.000Z,39.4
2022-11-16T01:00:41.000Z,39.4
2022-11-16T01:01:51.148Z,39.4
2022-11-16T01:03:01.267Z,39.4
2022-11-16T01:04:11.388Z,39.4
2022-11-16T01:05:21.509Z,39.4
2022-11-16T01:06:30.629Z,39.4
2022-11-16T01:07:40.000Z,39.4
2022-11-16T01:08:50.000Z,39.4
2022-11-16T01:10:00.975Z,39.4
2022-11-16T01:11:11.089Z,39.5
2022-11-16T01:12:21.222Z,39.4
2022-11-16T01:13:31.323Z,39.4
2022-11-16T01:14:41.447Z,39.5
2022-11-16T01:15:51.000Z,39.5
2022-11-16T01:17:01.000Z,39.5
2022-11-16T01:18:11.790Z,39.5
2022-11-16T01:19:21.000Z,39.5
2022-11-16T01:20:32.000Z,39.5
2022-11-16T01:21:41.000Z,39.5
2022-11-16T01:22:51.000Z,39.5
2022-11-16T01:24:01.381Z,39.5
2022-11-16T01:25:11.000Z,39.5
2022-11-16T01:26:21.622Z,39.5
2022-11-16T01:27:31.000Z,39.5
2022-11-16T01:28:41.847Z,39.5
2022-11-16T01:29:52.000Z,39.5
2022-11-16T01:31:02.141Z,39.5
2022-11-16T01:32:12.000Z,39.5
2022-11-16T01:33:22.000Z,39.5
2022-11-16T01:34:32.000Z,39.5
2022-11-16T01:35:42.613Z,39.5
2022-11-16T01:36:51.742Z,39.5
2022-11-16T01:38:00.000Z,39.5
2022-11-16T01:39:10.992Z,39.6
2022-11-16T01:40:21.116Z,39.6
2022-11-16T01:41:31.000Z,39.6
2022-11-16T01:42:41.351Z,39.6
2022-11-16T01:43:51.455Z,39.6
2022-11-16T01:45:01.000Z,39.6
2022-11-16T01:46:11.692Z,39.6
2022-11-16T01:47:21.799Z,39.6
2022-11-16T01:48:31.917Z,39.6
2022-11-16T01:49:42.039Z,39.6
2022-11-16T01:50:52.000Z,39.6
2022-11-16T01:52:02.275Z,39.6
2022-11-16T01:53:11.404Z,39.6
2022-11-16T01:54:21.516Z,39.6
2022-11-16T01:55:31.627Z,39.6
2022-11-16T01:56:41.000Z,39.6
2022-11-16T01:57:51.000Z,39.6
2022-11-16T01:59:01.980Z,39.6
2022-11-16T02:00:12.101Z,39.6
2022-11-16T02:01:22.205Z,39.6
2022-11-16T02:02:32.325Z,39.6
2022-11-16T02:03:42.000Z,39.7
2022-11-16T02:04:52.558Z,39.7
2022-11-16T02:06:02.680Z,39.7
2022-11-16T02:07:12.793Z,39.7
2022-11-16T02:08:21.000Z,39.7
2022-11-16T02:09:32.035Z,39.7
2022-11-16T02:10:42.000Z,39.7
2022-11-16T02:11:52.000Z,39.7
2022-11-16T02:13:02.000Z,39.7
2022-11-16T02:14:12.508Z,39.7
2022-11-16T02:15:22.626Z,39.7
2022-11-16T02:16:32.000Z,39.7
2022-11-16T02:17:42.853Z,39.7
2022-11-16T02:18:52.000Z,39.7
2022-11-16T02:20:03.000Z,39.7
2022-11-16T02:21:13.000Z,39.7
2022-11-16T02:22:23.313Z,39.7
2022-11-16T02:23:32.000Z,39.7
2022-11-16T02:24:42.000Z,39.7
2022-11-16T02:25:52.677Z,39.7
2022-11-16T02:27:02.000Z,39.7
2022-11-16T02:28:12.000Z,39.7
2022-11-16T02:29:23.034Z,39.8
2022-11-16T02:30:33.000Z,39.8
2022-11-16T02:31:43.000Z,39.8
2022-11-16T02:32:53.374Z,39.8
2022-11-16T02:34:03.489Z,39.8
2022-11-16T02:35:13.606Z,39.8
2022-11-16T02:36:23.720Z,39.8
2022-11-16T02:37:33.834Z,39.8
2022-11-16T02:38:42.972Z,39.8
2022-11-16T02:39:53.000Z,39.8
2022-11-16T02:41:03.000Z,39.8
2022-11-16T02:42:13.000Z,39.8
2022-11-16T02:43:23.000Z,39.8
2022-11-16T02:44:33.000Z,39.8
2022-11-16T02:45:43.000Z,39.8
2022-11-16T02:46:53.778Z,39.8
2022-11-16T02:48:03.000Z,39.8
2022-11-16T02:49:14.000Z,39.9
2022-11-16T02:50:24.121Z,39.8
2022-11-16T02:51:34.000Z,39.8
2022-11-16T02:52:44.000Z,39.9
2022-11-16T02:53:53.490Z,39.8
2022-11-16T02:55:03.000Z,39.9
2022-11-16T02:56:13.000Z,39.9
2022-11-16T02:57:23.000Z,39.9
2022-11-16T02:58:33.000Z,39.9
2022-11-16T02:59:44.067Z,39.9
2022-11-16T03:00:54.000Z,39.9
2022-11-16T03:02:04.000Z,39.9
2022-11-16T03:03:14.411Z,39.9
2022-11-16T03:04:24.000Z,39.9
2022-11-16T03:05:34.000Z,39.9
2022-11-16T03:06:44.000Z,39.9
2022-11-16T03:07:54.000Z,39.9
2022-11-16T03:09:04.000Z,39.9
2022-11-16T03:10:14.000Z,39.9
2022-11-16T03:11:24.000Z,39.9
2022-11-16T03:12:34.000Z,39.9
2022-11-16T03:13:44.505Z,40
2022-11-16T03:14:54.620Z,40
2022-11-16T03:16:04.000Z,40
2022-11-16T03:17:14.852Z,40
2022-11-16T03:18:24.000Z,40
2022-11-16T03:19:35.000Z,40
2022-11-16T03:20:45.000Z,40
2022-11-16T03:21:55.000Z,40
2022-11-16T03:23:05.430Z,40
2022-11-16T03:24:14.572Z,40
2022-11-16T03:25:24.680Z,40
2022-11-16T03:26:34.000Z,40
2022-11-16T03:27:44.000Z,40
2022-11-16T03:28:55.000Z,40
2022-11-16T03:30:05.000Z,40
2022-11-16T03:31:15.000Z,40
2022-11-16T03:32:25.000Z,40
2022-11-16T03:33:35.000Z,40
2022-11-16T03:34:45.000Z,40
2022-11-16T03:35:55.734Z,40
2022-11-16T03:37:05.000Z,40
2022-11-16T03:38:15.963Z,40
2022-11-16T03:39:25.085Z,40.1
2022-11-16T03:40:35.200Z,40.1
2022-11-16T03:41:45.322Z,40.1
2022-11-16T03:42:55.431Z,40.1
2022-11-16T03:44:05.549Z,40.1
2022-11-16T03:45:15.000Z,40.1
2022-11-16T03:46:25.000Z,40.1
2022-11-16T03:47:35.000Z,40.1
2022-11-16T03:48:46.000Z,40.1
2022-11-16T03:49:56.000Z,40.1
2022-11-16T03:51:06.000Z,40.1
2022-11-16T03:52:16.000Z,40.1
2022-11-16T03:53:26.000Z,40.1
2022-11-16T03:54:35.000Z,40.1
2022-11-16T03:55:45.000Z,40.1
2022-11-16T03:56:55.845Z,40.1
2022-11-16T03:58:05.963Z,40.1
2022-11-16T03:59:16.000Z,40.1
2022-11-16T04:00:26.191Z,40.2
2022-11-16T04:01:36.000Z,40.2
2022-11-16T04:02:46.000Z,40.2
2022-11-16T04:03:56.533Z,40.2
2022-11-16T04:05:06.648Z,40.2
2022-11-16T04:06:16.000Z,40.2
2022-11-16T04:07:26.000Z,40.2
2022-11-16T04:08:37.012Z,40.2
2022-11-16T04:09:46.128Z,40.2
2022-11-16T04:10:56.000Z,40.2
2022-11-16T04:12:06.000Z,40.2
2022-11-16T04:13:16.000Z,40.2
2022-11-16T04:14:26.589Z,40.2
2022-11-16T04:15:36.715Z,40.2
2022-11-16T04:16:46.000Z,40.2
2022-11-16T04:17:56.937Z,40.2
2022-11-16T04:19:07.000Z,40.2
2022-11-16T04:20:17.170Z,40.2
2022-11-16T04:21:27.000Z,40.2
2022-11-16T04:22:37.400Z,40.2
2022-11-16T04:23:47.519Z,40.2
2022-11-16T04:24:56.000Z,40.3
2022-11-16T04:26:06.770Z,40.2
2022-11-16T04:27:16.000Z,40.3
2022-11-16T04:28:27.000Z,40.3
2022-11-16T04:29:37.000Z,40.3
2022-11-16T04:30:47.229Z,40.3
2022-11-16T04:31:57.000Z,40.3
2022-11-16T04:33:07.000Z,40.3
2022-11-16T04:34:17.000Z,40.3
2022-11-16T04:35:27.691Z,40.3
2022-11-16T04:36:37.805Z,40.3
2022-11-16T04:37:47.000Z,40.3
2022-11-16T04:38:58.037Z,40.3
2022-11-16T04:40:07.000Z,40.3
2022-11-16T04:41:17.000Z,40.3
2022-11-16T04:42:27.000Z,40.3
2022-11-16T04:43:37.000Z,40.3
2022-11-16T04:44:47.000Z,40.3
2022-11-16T04:45:57.000Z,40.3
2022-11-16T04:47:07.000Z,40.3
2022-11-16T04:48:17.985Z,40.3
2022-11-16T04:49:28.000Z,40.4
2022-11-16T04:50:38.215Z,40.4
2022-11-16T04:51:48.000Z,40.4
2022-11-16T04:52:58.000Z,40.4
2022-11-16T04:54:08.564Z,40.4
2022-11-16T04:55:17.000Z,40.4
2022-11-16T04:56:27.810Z,40.4
2022-11-16T04:57:37.000Z,40.4
2022-11-16T04:58:48.000Z,40.4
2022-11-16T04:59:58.000Z,40.4
2022-11-16T05:01:08.000Z,40.4
2022-11-16T05:02:18.000Z,40.4
2022-11-16T05:03:28.510Z,40.4
2022-11-16T05:04:38.000Z,40.4
2022-11-16T05:05:48.000Z,40.4
2022-11-16T05:06:58.000Z,40.4
2022-11-16T05:08:08.000Z,40.4
2022-11-16T05:09:19.000Z,40.4
2022-11-16T05:10:28.000Z,40.4
2022-11-16T05:11:38.328Z,40.4
2022-11-16T05:12:48.446Z,40.5
2022-11-16T05:13:58.000Z,40.5
2022-11-16T05:15:08.000Z,40.5
2022-11-16T05:16:18.000Z,40.5
2022-11-16T05:17:28.000Z,40.5
2022-11-16T05:18:39.037Z,40.5
2022-11-16T05:19:49.141Z,40.5
2022-11-16T05:20:59.263Z,40.5
2022-11-16T05:22:09.377Z,40.5
2022-11-16T05:23:19.490Z,40.5
2022-11-16T05:24:29.000Z,40.5
2022-11-16T05:25:38.737Z,40.5
2022-11-16T05:26:48.861Z,40.5
2022-11-16T05:27:58.967Z,40.5
2022-11-16T05:29:09.000Z,40.5
2022-11-16T05:30:19.000Z,40.5
2022-11-16T05:31:29.000Z,40.5
2022-11-16T05:32:38.000Z,40.5
2022-11-16T05:33:48.569Z,40.5
2022-11-16T05:34:58.688Z,40.5
2022-11-16T05:36:08.797Z,40.5
2022-11-16T05:37:18.921Z,40.5
2022-11-16T05:38:29.000Z,40.5
2022-11-16T05:39:39.150Z,40.6
2022-11-16T05:40:49.000Z,40.5
2022-11-16T05:41:59.383Z,40.6
2022-11-16T05:43:09.000Z,40.6
2022-11-16T05:44:19.612Z,40.6
2022-11-16T05:45:29.729Z,40.6
2022-11-16T05:46:39.856Z,40.6
2022-11-16T05:47:48.000Z,40.6
2022-11-16T05:48:59.000Z,40.6
2022-11-16T05:50:09.000Z,40.6
2022-11-16T05:51:19.000Z,40.6
2022-11-16T05:52:29.000Z,40.6
2022-11-16T05:53:39.000Z,40.6
2022-11-16T05:54:49.000Z,40.6
2022-11-16T05:55:59.000Z,40.6
2022-11-16T05:57:09.909Z,40.6
2022-11-16T05:58:20.026Z,40.6
2022-11-16T05:59:30.145Z,40.6
2022-11-16T06:00:40.000Z,40.8
2022-11-16T06:01:50.369Z,40.9
2022-11-16T06:02:59.000Z,41
2022-11-16T06:04:09.628Z,41.1
2022-11-16T06:08:50.081Z,42.2
2022-11-16T06:10:00.000Z,42.4
2022-11-16T06:11:10.000Z,42.4
2022-11-16T06:12:20.433Z,42.8
2022-11-16T06:13:30.000Z,42.9
2022-11-16T06:14:40.654Z,43
2022-11-16T06:20:30.000Z,43.8
2022-11-16T06:21:40.372Z,43.9
2022-11-16T06:24:00.000Z,44
2022-11-16T06:25:10.722Z,44.2
2022-11-16T06:26:20.831Z,44.2
2022-11-16T06:27:30.000Z,44.4
2022-11-16T06:28:41.063Z,44.4
2022-11-16T06:32:11.000Z,44.5
2022-11-16T06:33:20.545Z,44.7
2022-11-16T06:34:30.662Z,44.7
2022-11-16T06:35:40.775Z,44.7
2022-11-16T06:36:50.000Z,44.7
2022-11-16T06:38:01.000Z,44.8
2022-11-16T06:39:11.131Z,44.8
2022-11-16T06:40:21.000Z,44.8
2022-11-16T06:41:31.000Z,44.9
2022-11-16T06:42:41.474Z,44.8
2022-11-16T06:43:51.593Z,44.8
2022-11-16T06:45:01.000Z,45
2022-11-16T06:46:11.000Z,45
2022-11-16T06:47:21.948Z,45
2022-11-16T06:48:31.065Z,45.1
2022-11-16T06:49:41.182Z,45.1
2022-11-16T06:50:51.299Z,45
2022-11-16T06:52:01.420Z,45
2022-11-16T06:53:11.532Z,45.1
2022-11-16T06:54:21.655Z,45.1
2022-11-16T06:55:31.000Z,45
2022-11-16T06:56:41.000Z,45.1
2022-11-16T06:57:51.996Z,45
2022-11-16T06:59:02.108Z,45.1
2022-11-16T07:00:12.223Z,45.1
2022-11-16T07:01:22.000Z,45
2022-11-16T07:02:32.000Z,45
2022-11-16T07:03:41.000Z,45.1
2022-11-16T07:04:51.717Z,45
2022-11-16T07:06:01.821Z,45
2022-11-16T07:07:11.926Z,45.1
2022-11-16T07:08:22.000Z,45
2022-11-16T07:09:32.160Z,45
2022-11-16T07:10:42.284Z,45.1
2022-11-16T07:11:52.000Z,45.1
2022-11-16T07:13:02.508Z,45
2022-11-16T07:14:12.000Z,45.1
2022-11-16T07:15:22.000Z,45
2022-11-16T07:16:32.000Z,45
2022-11-16T07:17:42.000Z,45
2022-11-16T07:18:52.000Z,45
2022-11-16T07:20:02.000Z,45
2022-11-16T07:21:12.332Z,45
2022-11-16T07:22:22.447Z,45
2022-11-16T07:23:32.000Z,45
2022-11-16T07:24:42.000Z,45
2022-11-16T07:25:52.800Z,45
2022-11-16T07:27:02.913Z,45
2022-11-16T07:28:13.040Z,45
2022-11-16T07:29:23.146Z,45
2022-11-16T07:30:33.000Z,45
2022-11-16T07:31:43.377Z,45
2022-11-16T07:32:53.000Z,45
2022-11-16T07:34:02.622Z,45
2022-11-16T07:35:12.738Z,45
2022-11-16T07:36:22.863Z,45
2022-11-16T07:37:32.000Z,45
2022-11-16T07:38:43.000Z,45
2022-11-16T07:39:53.216Z,45
2022-11-16T07:41:03.000Z,45
2022-11-16T07:42:13.000Z,45
2022-11-16T07:43:23.000Z,45
2022-11-16T07:44:33.673Z,45
2022-11-16T07:45:43.000Z,45.1
2022-11-16T07:46:53.907Z,45.1
2022-11-16T07:48:04.020Z,45.1
2022-11-16T07:49:13.153Z,45.1
2022-11-16T07:50:23.265Z,45.1
2022-11-16T07:51:33.383Z,45.1
2022-11-16T07:52:43.493Z,45.1
2022-11-16T07:53:53.616Z,45.1
2022-11-16T07:55:03.722Z,45.1
2022-11-16T07:56:13.856Z,45.1
2022-11-16T07:57:23.962Z,45.1
2022-11-16T07:58:34.000Z,45.1
2022-11-16T07:59:44.000Z,45.3
2022-11-16T08:00:54.000Z,45.3
2022-11-16T08:02:04.468Z,45.3
2022-11-16T08:03:14.581Z,45.3
2022-11-16T08:04:23.000Z,45.3
2022-11-16T08:05:33.822Z,45.3
2022-11-16T08:06:43.938Z,45.3
2022-11-16T08:07:54.058Z,45.3
2022-11-16T08:09:04.000Z,45.3
2022-11-16T08:10:14.288Z,45.3
2022-11-16T08:11:24.414Z,45.3
2022-11-16T08:12:34.522Z,45.3
2022-11-16T08:13:44.000Z,45.3
2022-11-16T08:14:54.750Z,45.3
2022-11-16T08:16:04.862Z,45.3
2022-11-16T08:17:14.982Z,45.3
2022-11-16T08:18:25.104Z,45.3
2022-11-16T08:19:34.223Z,45.3
2022-11-16T08:20:44.341Z,45.3
2022-11-16T08:21:54.461Z,45.3
2022-11-16T08:23:04.000Z,45.3
2022-11-16T08:24:14.000Z,45.3
2022-11-16T08:25:24.812Z,45.3
2022-11-16T08:26:34.000Z,45.3
2022-11-16T08:27:45.050Z,45.3
2022-11-16T08:28:55.000Z,45.3
2022-11-16T08:30:05.267Z,45.3
2022-11-16T08:31:15.388Z,45.3
2022-11-16T08:32:25.505Z,45.3
2022-11-16T08:33:35.624Z,45.3
2022-11-16T08:34:44.765Z,45.3
2022-11-16T08:35:54.865Z,45.3
2022-11-16T08:37:04.993Z,45.3
2022-11-16T08:38:15.000Z,45.3
2022-11-16T08:39:25.000Z,45.2
2022-11-16T08:40:35.331Z,45.2
2022-11-16T08:41:45.449Z,45.3
2022-11-16T08:42:55.566Z,45.3
2022-11-16T08:44:05.689Z,45.3
2022-11-16T08:45:15.804Z,45.3
2022-11-16T08:46:25.909Z,45.3
2022-11-16T08:47:36.000Z,45.3
2022-11-16T08:48:46.000Z,45.2
2022-11-16T08:49:55.000Z,45.2
2022-11-16T08:51:05.388Z,45.2
2022-11-16T08:52:15.508Z,45.3
2022-11-16T08:53:25.627Z,45.2
2022-11-16T08:54:35.000Z,45.3
2022-11-16T08:55:45.851Z,45.3
2022-11-16T08:56:55.000Z,45.3
2022-11-16T08:58:06.088Z,45.2
2022-11-16T08:59:16.000Z,45.2
2022-11-16T09:00:26.000Z,45.2
2022-11-16T09:01:36.429Z,45.2
2022-11-16T09:02:46.554Z,45.2
2022-11-16T09:03:56.000Z,45.1
2022-11-16T09:05:05.793Z,45.1
2022-11-16T09:06:15.920Z,45.1
2022-11-16T09:07:26.000Z,45.1
2022-11-16T09:08:36.000Z,45.1
2022-11-16T09:09:46.000Z,45.1
2022-11-16T09:10:56.000Z,45.1
2022-11-16T09:12:06.000Z,45.1
2022-11-16T09:13:16.000Z,45.1
2022-11-16T09:14:26.000Z,45.1
2022-11-16T09:15:36.000Z,45.1
2022-11-16T09:16:46.960Z,45
2022-11-16T09:17:57.074Z,45
2022-11-16T09:19:07.192Z,45
2022-11-16T09:20:16.000Z,45
2022-11-16T09:21:26.449Z,45
2022-11-16T09:22:36.565Z,45
2022-11-16T09:23:46.674Z,44.9
2022-11-16T09:24:56.000Z,44.9
2022-11-16T09:26:06.000Z,44.9
2022-11-16T09:27:16.000Z,44.9
2022-11-16T09:28:26.000Z,44.9
2022-11-16T09:29:36.000Z,44.9
2022-11-16T09:30:46.403Z,44.9
2022-11-16T09:31:56.000Z,44.9
2022-11-16T09:33:06.630Z,44.9
2022-11-16T09:34:16.736Z,44.9
2022-11-16T09:35:26.865Z,44.9
2022-11-16T09:36:36.000Z,44.9
2022-11-16T09:37:47.085Z,44.9
2022-11-16T09:38:57.000Z,44.8
2022-11-16T09:40:07.000Z,44.8
2022-11-16T09:41:17.000Z,44.8
2022-11-16T09:42:26.000Z,44.8
2022-11-16T09:43:36.000Z,44.9
2022-11-16T09:44:46.794Z,44.8
2022-11-16T09:45:56.909Z,44.9
2022-11-16T09:47:07.000Z,45
2022-11-16T09:48:17.000Z,45
2022-11-16T09:49:27.000Z,45.1
2022-11-16T09:50:37.000Z,45.2
2022-11-16T09:51:47.000Z,45.2
2022-11-16T09:52:57.000Z,45.2
2022-11-16T09:54:07.000Z,45.3
2022-11-16T09:55:17.000Z,45.2
2022-11-16T09:56:27.958Z,45.3
2022-11-16T09:57:37.094Z,45.2
2022-11-16T09:58:47.000Z,45.2
2022-11-16T09:59:57.315Z,45.1
2022-11-16T10:01:07.438Z,45.1
2022-11-16T10:02:17.000Z,45
2022-11-16T10:03:27.667Z,45.1
2022-11-16T10:04:37.000Z,45.1
2022-11-16T10:05:47.904Z,45.1
2022-11-16T10:06:58.031Z,45
2022-11-16T10:08:08.128Z,44.9
2022-11-16T10:09:18.000Z,44.8
2022-11-16T10:10:28.000Z,44.8
2022-11-16T10:11:38.494Z,44.7
2022-11-16T10:12:47.000Z,44.7
2022-11-16T10:13:57.000Z,44.6
2022-11-16T10:15:07.853Z,44.6
2022-11-16T10:16:17.956Z,44.6
2022-11-16T10:17:28.072Z,44.5
2022-11-16T10:18:38.000Z,44.5
2022-11-16T10:19:48.000Z,44.5
2022-11-16T10:20:58.422Z,44.4
2022-11-16T10:22:08.000Z,44.4
2022-11-16T10:23:18.662Z,44.3
2022-11-16T10:24:28.000Z,44.3
2022-11-16T10:25:38.896Z,44.2
2022-11-16T10:26:49.000Z,44.2
2022-11-16T10:27:58.168Z,44.1
2022-11-16T10:29:08.247Z,44.1
2022-11-16T10:30:18.372Z,44
2022-11-16T10:31:28.000Z,44
2022-11-16T10:32:38.599Z,43.9
2022-11-16T10:33:48.000Z,43.9
2022-11-16T10:34:58.829Z,43.8
2022-11-16T10:36:08.949Z,43.8
2022-11-16T10:37:19.000Z,43.8
2022-11-16T10:38:29.175Z,43.7
2022-11-16T10:39:39.294Z,43.6
2022-11-16T10:40:49.408Z,43.6
2022-11-16T10:41:59.528Z,43.5
2022-11-16T10:43:08.655Z,43.5
2022-11-16T10:44:18.000Z,43.5
2022-11-16T10:45:28.895Z,43.4
2022-11-16T10:46:39.008Z,43.3
2022-11-16T10:47:49.000Z,43.3
2022-11-16T10:48:59.243Z,43.3
2022-11-16T10:50:09.000Z,43.2
2022-11-16T10:51:19.000Z,43.2
2022-11-16T10:52:29.589Z,43.1
2022-11-16T10:53:39.701Z,43.1
2022-11-16T10:54:49.814Z,43
2022-11-16T10:55:59.936Z,43
2022-11-16T10:57:10.060Z,43
2022-11-16T10:58:19.000Z,42.9
2022-11-16T10:59:29.000Z,42.9
2022-11-16T11:00:39.420Z,42.8
2022-11-16T11:01:49.542Z,42.8
2022-11-16T11:02:59.643Z,42.8
2022-11-16T11:04:09.000Z,42.7
2022-11-16T11:05:19.893Z,42.6
2022-11-16T11:06:29.993Z,42.6
2022-11-16T11:07:40.000Z,42.5
2022-11-16T11:08:50.000Z,42.5
2022-11-16T11:10:00.000Z,42.4
2022-11-16T11:11:10.000Z,42.4
2022-11-16T11:12:20.577Z,42.3
2022-11-16T11:13:29.000Z,42.2
2022-11-16T11:14:39.000Z,42.2
2022-11-16T11:15:49.942Z,42.1
2022-11-16T11:17:00.000Z,42.1
2022-11-16T11:18:10.000Z,42
2022-11-16T11:19:20.291Z,42
2022-11-16T11:20:30.405Z,42
2022-11-16T11:21:40.531Z,42
2022-11-16T11:22:50.000Z,42
2022-11-16T11:24:00.755Z,42
2022-11-16T11:25:10.000Z,41.9
2022-11-16T11:26:20.000Z,41.8
2022-11-16T11:27:31.097Z,41.7
2022-11-16T11:28:40.239Z,41.6
2022-11-16T11:29:50.344Z,41.6
2022-11-16T11:31:00.460Z,41.5
2022-11-16T11:32:10.584Z,41.5
2022-11-16T11:34:30.000Z,41.4
2022-11-16T11:35:40.000Z,41.4
2022-11-16T11:36:51.000Z,41.4
2022-11-16T11:38:01.156Z,41.4
2022-11-16T11:39:11.000Z,41.3
2022-11-16T11:40:21.000Z,41.3
2022-11-16T11:41:31.000Z,41.1
2022-11-16T11:42:41.000Z,41.1
2022-11-16T11:43:50.000Z,41
2022-11-16T11:45:00.000Z,41
2022-11-16T11:46:10.000Z,41.1
2022-11-16T11:47:21.000Z,41
2022-11-16T11:48:31.217Z,41
2022-11-16T11:49:41.000Z,41.1
2022-11-16T11:50:51.445Z,41.1
2022-11-16T11:52:01.000Z,41.2
2022-11-16T11:53:11.685Z,41.2
2022-11-16T11:54:21.000Z,41.1
2022-11-16T11:55:31.000Z,41.1
2022-11-16T11:56:42.028Z,41
2022-11-16T11:57:52.143Z,41
2022-11-16T11:59:01.278Z,40.9
2022-11-16T12:00:11.391Z,41
2022-11-16T12:01:21.000Z,41
2022-11-16T12:02:31.000Z,41
2022-11-16T12:03:41.738Z,40.9
2022-11-16T12:04:51.858Z,40.9
2022-11-16T12:06:01.972Z,40.8
2022-11-16T12:07:12.085Z,40.6
2022-11-16T12:08:22.219Z,40.6
2022-11-16T12:09:32.317Z,40.5
2022-11-16T12:10:42.439Z,40.5
2022-11-16T12:11:52.549Z,40.5
2022-11-16T12:13:02.000Z,40.5
2022-11-16T12:14:11.808Z,40.4
2022-11-16T12:15:21.918Z,40.4
2022-11-16T12:16:32.000Z,40.4
2022-11-16T12:17:42.000Z,40.4
2022-11-16T12:18:52.276Z,40.5
2022-11-16T12:20:02.381Z,40.5
2022-11-16T12:21:12.000Z,40.4
2022-11-16T12:22:22.625Z,40.4
2022-11-16T12:23:32.000Z,40.4
2022-11-16T12:24:42.841Z,40.4
2022-11-16T12:25:52.000Z,40.4
2022-11-16T12:27:03.078Z,40.4
2022-11-16T12:28:13.000Z,40.4
2022-11-16T12:29:22.000Z,40.4
2022-11-16T12:30:32.000Z,40.4
2022-11-16T12:31:42.000Z,40.4
2022-11-16T12:32:52.672Z,40.4
2022-11-16T12:34:02.000Z,40.4
2022-11-16T12:35:12.000Z,40.4
2022-11-16T12:36:23.000Z,40.4
2022-11-16T12:37:33.140Z,40.4
2022-11-16T12:38:43.000Z,40.4
2022-11-16T12:39:53.436Z,40.3
2022-11-16T12:41:03.000Z,40.3
2022-11-16T12:42:13.000Z,40.3
2022-11-16T12:43:23.782Z,40.3
2022-11-16T12:44:32.921Z,40.3
2022-11-16T12:45:43.000Z,40.3
2022-11-16T12:46:53.000Z,40.2
2022-11-16T12:48:03.262Z,40.2
2022-11-16T12:49:13.000Z,40.2
2022-11-16T12:50:23.496Z,40
2022-11-16T12:51:33.000Z,40.2
2022-11-16T12:52:43.729Z,40
2022-11-16T12:53:53.000Z,40
2022-11-16T12:55:03.957Z,40
2022-11-16T12:56:14.000Z,40
2022-11-16T12:57:24.000Z,40
2022-11-16T12:58:34.000Z,40
2022-11-16T12:59:43.000Z,40.2
2022-11-16T13:00:53.000Z,40.4
2022-11-16T13:02:03.000Z,40.5
2022-11-16T13:03:13.000Z,40.5
2022-11-16T13:04:23.000Z,40.3
2022-11-16T13:05:34.027Z,40.2
2022-11-16T13:06:44.125Z,40.2
2022-11-16T13:07:54.000Z,40
2022-11-16T13:09:04.367Z,40
2022-11-16T13:10:14.000Z,39.9
2022-11-16T13:11:24.000Z,39.9
2022-11-16T13:12:34.000Z,39.9
2022-11-16T13:13:44.000Z,39.8
2022-11-16T13:14:53.000Z,39.8
2022-11-16T13:16:04.076Z,39.7
2022-11-16T13:17:14.000Z,39.7
2022-11-16T13:18:24.000Z,39.7
2022-11-16T13:19:34.000Z,39.7
2022-11-16T13:20:44.000Z,39.6
2022-11-16T13:21:53.680Z,39.6
2022-11-16T13:23:03.000Z,39.6
2022-11-16T13:24:13.902Z,39.6
2022-11-16T13:25:24.000Z,39.6
2022-11-16T13:26:34.000Z,39.5
2022-11-16T13:27:44.000Z,39.5
2022-11-16T13:28:54.000Z,39.5
2022-11-16T13:30:04.488Z,39.5
2022-11-16T13:31:14.000Z,39.5
2022-11-16T13:32:24.000Z,39.5
2022-11-16T13:33:34.836Z,39.4
2022-11-16T13:34:44.000Z,39.3
2022-11-16T13:35:55.069Z,39.3
2022-11-16T13:37:04.000Z,39.3
2022-11-16T13:38:14.000Z,39.2
2022-11-16T13:39:24.000Z,39.1
2022-11-16T13:40:34.547Z,39.2
2022-11-16T13:41:44.665Z,39.1
2022-11-16T13:42:54.781Z,39.1
2022-11-16T13:44:04.896Z,39.1
2022-11-16T13:45:15.000Z,39.1
2022-11-16T13:46:25.133Z,39
2022-11-16T13:47:35.000Z,39
2022-11-16T13:48:45.356Z,38.9
2022-11-16T13:49:55.000Z,38.9
2022-11-16T13:51:05.000Z,38.9
2022-11-16T13:52:14.722Z,38.9
2022-11-16T13:53:24.000Z,38.9
2022-11-16T13:54:34.000Z,38.9
2022-11-16T13:55:45.000Z,38.8
2022-11-16T13:56:55.192Z,38.8
2022-11-16T13:58:05.000Z,38.8
2022-11-16T13:59:15.422Z,38.8
2022-11-16T14:00:25.000Z,38.8
2022-11-16T14:01:35.000Z,38.7
2022-11-16T14:02:45.000Z,38.7
2022-11-16T14:03:55.879Z,38.7
2022-11-16T14:05:06.006Z,38.7
2022-11-16T14:06:16.000Z,38.6
2022-11-16T14:07:25.000Z,38.6
2022-11-16T14:08:35.000Z,38.6
2022-11-16T14:09:45.000Z,38.6
2022-11-16T14:10:55.591Z,38.5
2022-11-16T14:12:05.000Z,38.5
2022-11-16T14:13:15.827Z,38.4
2022-11-16T14:14:25.000Z,38.4
2022-11-16T14:15:36.068Z,38.4
2022-11-16T14:16:46.000Z,38.4
2022-11-16T14:17:56.296Z,38.4
2022-11-16T14:19:06.000Z,38.4
2022-11-16T14:20:16.528Z,38.4
2022-11-16T14:21:26.000Z,38.4
2022-11-16T14:22:35.000Z,38.5
2022-11-16T14:23:45.890Z,38.5
2022-11-16T14:24:56.000Z,38.5
2022-11-16T14:26:06.000Z,38.6
2022-11-16T14:27:16.243Z,38.6
2022-11-16T14:28:26.351Z,38.5
2022-11-16T14:29:36.462Z,38.5
2022-11-16T14:30:46.584Z,38.5
2022-11-16T14:31:56.697Z,38.5
2022-11-16T14:33:06.000Z,38.5
2022-11-16T14:34:16.927Z,38.4
2022-11-16T14:35:27.044Z,38.4
2022-11-16T14:36:37.000Z,38.4
2022-11-16T14:37:46.000Z,38.4
2022-11-16T14:38:56.412Z,38.3
2022-11-16T14:40:06.527Z,38.3
2022-11-16T14:41:16.648Z,38.3
2022-11-16T14:42:26.000Z,38.3
2022-11-16T14:43:36.000Z,38.3
2022-11-16T14:44:46.999Z,38.3
2022-11-16T14:45:57.000Z,38.3
2022-11-16T14:47:07.221Z,38.3
2022-11-16T14:48:17.342Z,38.3
2022-11-16T14:49:27.000Z,38.3
2022-11-16T14:50:37.000Z,38.2
2022-11-16T14:51:47.000Z,38.2
2022-11-16T14:52:56.826Z,38.2
2022-11-16T14:54:06.000Z,38.2
2022-11-16T14:55:17.000Z,38.2
2022-11-16T14:56:27.000Z,38.2
2022-11-16T14:57:37.000Z,38.2
2022-11-16T14:58:47.394Z,38.2
2022-11-16T14:59:57.519Z,38.2
2022-11-16T15:01:07.000Z,38.2
2022-11-16T15:02:17.741Z,38.2
2022-11-16T15:03:27.000Z,38.1
2022-11-16T15:04:37.986Z,38.2
2022-11-16T15:05:48.000Z,38.2
2022-11-16T15:06:58.000Z,38.2
2022-11-16T15:08:07.000Z,38.1
2022-11-16T15:09:17.000Z,38.2
2022-11-16T15:10:27.000Z,38.2
2022-11-16T15:11:37.000Z,38.2
2022-11-16T15:12:47.000Z,38.2
2022-11-16T15:13:57.942Z,38.2
2022-11-16T15:15:08.000Z,38.2
2022-11-16T15:16:18.000Z,38.2
2022-11-16T15:17:28.000Z,38.2
2022-11-16T15:18:38.000Z,38.2
2022-11-16T15:19:48.000Z,38.2
2022-11-16T15:20:58.626Z,38.2
2022-11-16T15:22:08.000Z,38.2
2022-11-16T15:23:17.872Z,38.2
2022-11-16T15:24:27.000Z,38.2
2022-11-16T15:25:38.109Z,38.2
2022-11-16T15:26:48.000Z,38.2
2022-11-16T15:27:58.338Z,38.2
2022-11-16T15:29:08.000Z,38.2
2022-11-16T15:30:18.000Z,38.2
2022-11-16T15:31:28.000Z,38.2
2022-11-16T15:32:38.000Z,38.2
2022-11-16T15:33:48.000Z,38.3
2022-11-16T15:34:59.029Z,38.2
2022-11-16T15:36:09.000Z,38.3
2022-11-16T15:37:19.262Z,38.3
2022-11-16T15:38:28.000Z,38.3
2022-11-16T15:39:38.000Z,38.3
2022-11-16T15:40:48.000Z,38.3
2022-11-16T15:41:58.000Z,38.3
2022-11-16T15:43:08.856Z,38.3
2022-11-16T15:44:18.972Z,38.3
2022-11-16T15:45:29.000Z,38.3
2022-11-16T15:46:39.000Z,38.3
2022-11-16T15:47:49.000Z,38.4
2022-11-16T15:48:59.438Z,38.3
2022-11-16T15:50:09.000Z,38.3
2022-11-16T15:51:19.000Z,38.3
2022-11-16T15:52:29.000Z,38.3
2022-11-16T15:53:38.000Z,38.3